.
WxDataArchive / Data Records for 2015-03-25
2015-03-24 March 2015 2015-03-26

Data Records for Wednesday, 25 March 2015

Time	Temp	Chill	HIndex	Humid	Dewpt	 Wind 	HiWind	WindDir	Rain 	Barom
-----	----	-----	------	-----	-----	------	------	-------	-----	-----
00:00	31.0	26.9	31.0	67	21.3	4	7	90	0.00	30.123 
00:05	31.0	31.0	31.0	67	21.3	3	7	90	0.00	30.123 
00:10	31.0	25.9	31.0	67	21.3	5	10	90	0.00	30.123 
00:15	31.0	25.9	31.0	67	21.3	5	11	90	0.00	30.124 
00:20	31.0	26.9	31.0	67	21.3	4	11	90	0.00	30.124 
00:25	30.9	26.8	30.9	67	21.3	4	12	90	0.00	30.124 
00:30	30.9	25.8	30.9	68	21.6	5	10	90	0.00	30.114 
00:35	30.7	26.6	30.7	69	21.8	4	9	90	0.00	30.114 
00:40	30.7	26.6	30.7	69	21.8	4	10	112	0.00	30.114 
00:45	30.7	26.6	30.7	70	22.1	4	7	90	0.00	30.112 
00:50	30.7	26.6	30.7	70	22.1	4	7	90	0.00	30.112 
00:55	30.7	26.6	30.7	71	22.4	4	10	90	0.00	30.112 
01:00	30.7	26.6	30.7	72	22.8	4	10	112	0.00	30.096 
01:05	30.7	30.7	30.7	72	22.8	3	6	112	0.00	30.096 
01:10	30.7	26.6	30.7	73	23.1	4	7	90	0.00	30.096 
01:15	30.7	25.5	30.7	73	23.1	5	12	90	0.00	30.086 
01:20	30.7	25.5	30.7	73	23.1	5	10	90	0.00	30.086 
01:25	30.7	25.5	30.7	73	23.1	5	10	90	0.00	30.086 
01:30	30.7	25.5	30.7	73	23.1	5	11	90	0.00	30.084 
01:35	30.7	30.7	30.7	74	23.4	3	7	90	0.00	30.084 
01:40	30.7	26.6	30.7	74	23.4	4	8	90	0.00	30.084 
01:45	30.7	30.7	30.7	75	23.7	3	6	90	0.00	30.075 
01:50	30.9	26.8	30.9	76	24.2	4	9	90	0.00	30.075 
01:55	30.9	26.8	30.9	76	24.2	4	9	90	0.00	30.075 
02:00	30.9	26.8	30.9	77	24.6	4	11	90	0.00	30.058 
02:05	30.9	26.8	30.9	77	24.6	4	10	90	0.00	30.058 
02:10	30.9	25.8	30.9	77	24.6	5	9	90	0.00	30.058 
02:15	30.9	26.8	30.9	77	24.6	4	10	90	0.00	30.046 
02:20	30.9	26.8	30.9	77	24.6	4	9	112	0.00	30.046 
02:25	30.9	30.9	30.9	78	24.9	3	6	90	0.00	30.046 
02:30	30.9	26.8	30.9	78	24.9	4	9	90	0.00	30.037 
02:35	31.0	26.9	31.0	78	25.0	4	10	90	0.00	30.037 
02:40	31.0	26.9	31.0	78	25.0	4	10	90	0.00	30.037 
02:45	31.2	31.2	31.2	78	25.2	3	9	90	0.00	30.027 
02:50	31.2	31.2	31.2	78	25.2	3	8	90	0.00	30.027 
02:55	31.3	27.3	31.3	78	25.3	4	11	90	0.00	30.027 
03:00	31.5	31.5	31.5	78	25.4	3	10	90	0.00	30.002 
03:05	31.6	31.6	31.6	79	25.8	3	7	90	0.00	30.002 
03:10	31.6	27.6	31.6	79	25.8	4	7	90	0.00	30.002 
03:15	31.6	27.6	31.6	79	25.8	4	9	90	0.00	29.993 
03:20	31.6	27.6	31.6	80	26.2	4	10	90	0.00	29.993 
03:25	31.8	31.8	31.8	80	26.3	3	9	90	0.00	29.993 
03:30	31.8	31.8	31.8	80	26.3	3	6	90	0.00	29.986 
03:35	31.9	31.9	31.9	80	26.4	3	7	90	0.00	29.986 
03:40	32.1	32.1	32.1	80	26.6	3	6	90	0.00	29.986 
03:45	32.2	32.2	32.2	79	26.4	3	5	68	0.00	29.990 
03:50	32.4	32.4	32.4	80	26.9	2	5	90	0.00	29.990 
03:55	32.5	32.5	32.5	81	27.3	2	5	68	0.00	29.990 
04:00	32.5	32.5	32.5	82	27.6	2	5	68	0.00	29.984 
04:05	32.5	32.5	32.5	83	27.9	2	5	90	0.01	29.984 
04:10	32.4	32.4	32.4	84	28.1	3	6	90	0.00	29.984 
04:15	32.4	32.4	32.4	84	28.1	2	6	68	0.01	29.971 
04:20	32.4	32.4	32.4	85	28.4	3	5	112	0.01	29.971 
04:25	32.4	32.4	32.4	86	28.7	2	5	90	0.02	29.971 
04:30	32.4	32.4	32.4	87	29.0	3	5	90	0.01	29.955 
04:35	32.4	32.4	32.4	88	29.3	3	7	90	0.01	29.955 
04:40	32.4	32.4	32.4	88	29.3	3	6	90	0.01	29.955 
04:45	32.4	32.4	32.4	89	29.5	3	6	90	0.00	29.926 
04:50	32.4	32.4	32.4	89	29.5	3	5	90	0.00	29.926 
04:55	32.4	32.4	32.4	89	29.5	2	7	90	0.01	29.926 
05:00	32.5	32.5	32.5	90	29.9	2	6	112	0.01	29.923 
05:05	32.5	32.5	32.5	90	29.9	2	4	112	0.01	29.923 
05:10	32.5	32.5	32.5	90	29.9	1	3	112	0.00	29.923 
05:15	32.7	32.7	32.7	90	30.1	2	9	135	0.01	29.908 
05:20	32.7	32.7	32.7	91	30.4	3	6	112	0.01	29.908 
05:25	32.8	32.8	32.8	91	30.5	3	7	112	0.00	29.908 
05:30	33.1	33.1	33.1	91	30.8	3	6	90	0.01	29.890 
05:35	33.2	33.2	33.2	92	31.1	2	5	112	0.01	29.890 
05:40	33.4	33.4	33.4	92	31.3	3	7	90	0.00	29.890 
05:45	33.4	33.4	33.4	92	31.3	1	5	90	0.01	29.902 
05:50	33.5	33.5	33.5	92	31.4	1	4	90	0.03	29.902 
05:55	33.7	33.7	33.7	92	31.6	1	3	90	0.03	29.902 
06:00	34.0	34.0	34.0	92	31.9	2	6	90	0.01	29.884 
06:05	34.3	34.3	34.3	93	32.5	2	4	90	0.01	29.884 
06:10	34.7	34.7	34.7	93	32.9	2	5	90	0.01	29.884 
06:15	35.0	35.0	35.0	93	33.2	3	5	90	0.00	29.859 
06:20	35.3	35.3	35.3	93	33.5	3	6	90	0.01	29.859 
06:25	35.5	35.5	35.5	93	33.7	2	9	90	0.00	29.859 
06:30	35.8	35.8	35.8	93	34.0	1	5	90	0.00	29.849 
06:35	35.9	35.9	35.9	94	34.3	2	5	90	0.00	29.849 
06:40	36.0	36.0	36.0	94	34.4	1	4	90	0.00	29.849 
06:45	36.2	36.2	36.2	94	34.6	1	3	90	0.01	29.839 
06:50	36.3	36.3	36.3	94	34.7	1	4	90	0.00	29.839 
06:55	36.5	36.5	36.5	94	34.9	1	4	90	0.00	29.839 
07:00	36.6	36.6	36.6	94	35.0	1	3	90	0.00	29.830 
07:05	36.8	36.8	36.8	94	35.2	0	2	90	0.00	29.830 
07:10	36.9	36.9	36.9	94	35.3	0	2	90	0.00	29.830 
07:15	37.2	37.2	37.2	94	35.6	0	2	90	0.00	29.837 
07:20	37.3	37.3	37.3	95	36.0	0	0	---	0.00	29.837 
07:25	37.5	37.5	37.5	95	36.2	0	0	---	0.00	29.837 
07:30	37.8	37.8	37.8	95	36.5	0	1	90	0.00	29.835 
07:35	38.2	38.2	38.2	95	36.9	0	2	90	0.00	29.835 
07:40	38.5	38.5	38.5	95	37.2	0	2	90	0.00	29.835 
07:45	38.8	38.8	38.8	95	37.5	0	1	90	0.00	29.833 
07:50	39.3	39.3	39.3	95	38.0	1	3	90	0.00	29.833 
07:55	39.9	39.9	39.9	95	38.6	2	7	90	0.00	29.833 
08:00	40.3	40.3	40.3	95	39.0	1	5	112	0.00	29.828 
08:05	40.5	40.5	40.5	95	39.2	0	2	90	0.00	29.828 
08:10	40.8	40.8	40.8	95	39.5	1	3	45	0.00	29.828 
08:15	41.1	41.1	41.1	95	39.8	1	4	90	0.00	29.830 
08:20	41.2	41.2	41.2	95	39.9	0	1	90	0.00	29.830 
08:25	41.2	41.2	41.2	95	39.9	0	2	90	0.00	29.830 
08:30	41.3	41.3	41.3	95	40.0	0	2	90	0.00	29.833 
08:35	41.5	41.5	41.5	95	40.2	1	2	90	0.00	29.833 
08:40	41.6	41.6	41.6	95	40.3	1	3	90	0.00	29.833 
08:45	41.8	41.8	41.8	96	40.7	1	6	90	0.00	29.823 
08:50	42.1	42.1	42.1	96	41.0	1	2	90	0.00	29.823 
08:55	42.1	42.1	42.1	95	40.8	0	2	90	0.00	29.823 
09:00	42.2	42.2	42.2	95	40.9	0	2	90	0.00	29.829 
09:05	42.2	42.2	42.2	95	40.9	0	2	90	0.00	29.829 
09:10	42.3	42.3	42.3	95	41.0	0	1	90	0.00	29.829 
09:15	42.3	42.3	42.3	95	41.0	0	1	90	0.00	29.831 
09:20	42.5	42.5	42.5	96	41.4	0	2	90	0.00	29.831 
09:25	42.6	42.6	42.6	95	41.3	0	2	90	0.00	29.831 
09:30	42.6	42.6	42.6	95	41.3	0	1	90	0.00	29.836 
09:35	42.6	42.6	42.6	96	41.5	0	2	90	0.00	29.836 
09:40	42.8	42.8	42.8	96	41.7	0	2	90	0.00	29.836 
09:45	42.9	42.9	42.9	96	41.8	0	3	90	0.00	29.842 
09:50	43.2	43.2	43.2	96	42.1	0	2	90	0.00	29.842 
09:55	43.5	43.5	43.5	96	42.4	1	3	90	0.00	29.842 
10:00	43.9	43.9	43.9	96	42.8	0	2	90	0.01	29.841 
10:05	44.3	44.3	44.3	96	43.2	1	4	90	0.00	29.841 
10:10	44.5	44.5	44.5	96	43.4	1	4	90	0.00	29.841 
10:15	44.8	44.8	44.8	96	43.7	1	3	270	0.00	29.850 
10:20	45.1	45.1	45.1	96	44.0	2	6	248	0.00	29.850 
10:25	45.2	45.2	45.2	96	44.1	1	4	248	0.00	29.850 
10:30	45.4	45.4	45.4	96	44.3	2	6	248	0.00	29.856 
10:35	45.5	45.5	45.5	96	44.4	1	4	248	0.00	29.856 
10:40	45.7	45.7	45.7	96	44.6	2	7	248	0.00	29.856 
10:45	45.7	45.7	45.7	96	44.6	1	6	248	0.00	29.866 
10:50	45.8	45.8	45.8	96	44.7	1	4	248	0.00	29.866 
10:55	46.0	46.0	46.0	96	44.9	2	7	248	0.00	29.866 
11:00	46.0	46.0	46.0	96	44.9	3	11	248	0.00	29.880 
11:05	46.0	46.0	46.0	96	44.9	3	10	270	0.00	29.880 
11:10	46.0	44.2	46.0	96	44.9	4	10	248	0.00	29.880 
11:15	46.0	46.0	46.0	96	44.9	3	10	248	0.00	29.885 
11:20	45.8	44.0	45.8	96	44.7	4	9	248	0.00	29.885 
11:25	45.8	45.8	45.8	96	44.7	2	9	248	0.00	29.885 
11:30	45.8	44.0	45.8	96	44.7	4	11	248	0.00	29.892 
11:35	46.0	46.0	46.0	96	44.9	3	6	248	0.00	29.892 
11:40	45.8	44.0	45.8	95	44.4	4	12	248	0.00	29.892 
11:45	45.8	45.8	45.8	95	44.4	3	7	248	0.00	29.909 
11:50	45.5	43.7	45.5	95	44.2	4	9	248	0.00	29.909 
11:55	45.4	45.4	45.4	95	44.1	3	11	248	0.00	29.909 
12:00	45.2	45.2	45.2	95	43.9	3	7	248	0.00	29.917 
12:05	45.1	45.1	45.1	95	43.8	3	7	248	0.00	29.917 
12:10	45.1	45.1	45.1	95	43.8	3	7	248	0.00	29.917 
12:15	44.9	44.9	44.9	95	43.6	2	5	248	0.00	29.932 
12:20	44.3	42.3	44.3	94	42.7	4	10	248	0.00	29.932 
12:25	44.1	44.1	44.1	94	42.5	3	5	248	0.00	29.932 
12:30	43.9	43.9	43.9	94	42.3	3	5	270	0.00	29.935 
12:35	43.9	43.9	43.9	94	42.3	3	6	270	0.00	29.935 
12:40	43.9	43.9	43.9	94	42.3	2	7	225	0.00	29.935 
12:45	44.1	44.1	44.1	94	42.5	2	5	248	0.00	29.942 
12:50	43.9	43.9	43.9	94	42.3	3	7	270	0.00	29.942 
12:55	43.9	43.9	43.9	93	42.0	3	5	248	0.00	29.942 
13:00	43.8	41.7	43.8	93	41.9	4	11	270	0.00	29.960 
13:05	43.6	41.5	43.6	92	41.4	4	8	270	0.00	29.960 
13:10	43.8	43.8	43.8	92	41.6	3	8	248	0.00	29.960 
13:15	43.9	41.8	43.9	92	41.7	4	8	248	0.00	29.965 
13:20	44.1	44.1	44.1	91	41.6	2	6	270	0.00	29.965 
13:25	44.1	44.1	44.1	91	41.6	2	7	248	0.00	29.965 
13:30	44.2	44.2	44.2	91	41.7	2	7	248	0.00	29.961 
13:35	44.3	44.3	44.3	90	41.6	3	9	248	0.00	29.961 
13:40	44.8	44.8	44.8	89	41.8	3	9	248	0.00	29.961 
13:45	45.2	45.2	45.2	88	41.9	3	6	248	0.00	29.963 
13:50	45.4	45.4	45.4	87	41.8	3	10	248	0.00	29.963 
13:55	45.4	45.4	45.4	86	41.5	3	6	248	0.00	29.963 
14:00	45.4	45.4	45.4	85	41.2	3	9	248	0.00	29.978 
14:05	45.4	45.4	45.4	84	40.9	3	8	270	0.00	29.978 
14:10	45.4	43.6	45.4	84	40.9	4	7	248	0.00	29.978 
14:15	45.4	45.4	45.4	84	40.9	3	6	270	0.00	29.984 
14:20	45.5	45.5	45.5	83	40.6	3	7	248	0.00	29.984 
14:25	45.5	45.5	45.5	83	40.6	2	7	248	0.00	29.984 
14:30	45.7	45.7	45.7	83	40.8	2	6	270	0.00	29.990 
14:35	45.7	45.7	45.7	83	40.8	3	5	248	0.00	29.990 
14:40	45.8	45.8	45.8	83	40.9	2	5	248	0.00	29.990 
14:45	46.0	46.0	46.0	82	40.8	2	5	248	0.00	29.993 
14:50	45.8	45.8	45.8	82	40.6	3	10	248	0.00	29.993 
14:55	45.8	45.8	45.8	82	40.6	3	7	248	0.00	29.993 
15:00	45.8	45.8	45.8	82	40.6	3	7	248	0.00	29.996 
15:05	45.8	45.8	45.8	82	40.6	2	6	248	0.00	29.996 
15:10	45.7	45.7	45.7	82	40.5	3	7	270	0.00	29.996 
15:15	45.8	45.8	45.8	82	40.6	1	4	248	0.00	29.998 
15:20	45.7	45.7	45.7	82	40.5	3	7	248	0.00	29.998 
15:25	45.7	45.7	45.7	82	40.5	3	9	248	0.00	29.998 
15:30	45.7	45.7	45.7	82	40.5	2	4	248	0.00	29.996 
15:35	45.8	45.8	45.8	82	40.6	2	4	248	0.00	29.996 
15:40	46.0	46.0	46.0	82	40.8	2	6	248	0.00	29.996 
15:45	46.1	46.1	46.1	81	40.6	3	9	248	0.00	30.007 
15:50	46.2	46.2	46.2	81	40.7	3	7	248	0.00	30.007 
15:55	46.4	46.4	46.4	81	40.9	2	5	248	0.00	30.007 
16:00	46.5	46.5	46.5	81	41.0	2	5	248	0.00	30.007 
16:05	46.7	46.7	46.7	80	40.9	2	6	248	0.00	30.007 
16:10	46.7	46.7	46.7	80	40.9	3	6	248	0.00	30.007 
16:15	46.7	46.7	46.7	79	40.5	3	6	248	0.00	30.007 
16:20	46.8	46.8	46.8	79	40.6	2	6	248	0.00	30.007 
16:25	47.1	47.1	47.1	79	40.9	3	6	248	0.00	30.007 
16:30	47.1	47.1	47.1	78	40.6	3	5	270	0.00	30.011 
16:35	47.1	47.1	47.1	79	40.9	2	7	270	0.00	30.011 
16:40	47.1	47.1	47.1	78	40.6	2	5	248	0.00	30.011 
16:45	47.1	47.1	47.1	78	40.6	2	7	248	0.00	30.008 
16:50	47.0	47.0	47.0	79	40.8	2	7	248	0.00	30.008 
16:55	47.1	47.1	47.1	78	40.6	2	7	270	0.00	30.008 
17:00	47.1	47.1	47.1	78	40.6	3	6	248	0.00	30.007 
17:05	47.4	47.4	47.4	77	40.6	2	6	248	0.00	30.007 
17:10	47.4	47.4	47.4	77	40.6	2	4	248	0.00	30.007 
17:15	47.6	47.6	47.6	77	40.8	2	4	248	0.00	30.011 
17:20	47.9	47.9	47.9	76	40.7	2	6	248	0.00	30.011 
17:25	48.0	48.0	48.0	76	40.8	2	5	248	0.00	30.011 
17:30	48.0	48.0	48.0	75	40.5	2	5	248	0.00	30.005 
17:35	48.0	48.0	48.0	76	40.8	2	5	248	0.00	30.005 
17:40	48.0	48.0	48.0	76	40.8	2	5	248	0.00	30.005 
17:45	47.9	47.9	47.9	76	40.7	2	4	248	0.00	30.004 
17:50	48.0	48.0	48.0	76	40.8	2	5	248	0.00	30.004 
17:55	48.0	48.0	48.0	76	40.8	1	5	248	0.00	30.004 
18:00	48.2	48.2	48.2	76	41.0	1	4	248	0.00	30.004 
18:05	48.5	48.5	48.5	76	41.3	1	4	248	0.00	30.004 
18:10	48.6	48.6	48.6	76	41.4	1	4	248	0.00	30.004 
18:15	48.2	48.2	48.2	75	40.7	2	5	248	0.00	30.002 
18:20	47.7	47.7	47.7	76	40.5	1	4	248	0.00	30.002 
18:25	47.4	47.4	47.4	77	40.6	1	3	248	0.00	30.002 
18:30	47.4	47.4	47.4	78	40.9	0	2	248	0.00	30.006 
18:35	47.3	47.3	47.3	78	40.8	1	5	248	0.00	30.006 
18:40	47.1	47.1	47.1	78	40.6	1	3	270	0.00	30.006 
18:45	47.1	47.1	47.1	78	40.6	1	5	248	0.00	30.014 
18:50	47.0	47.0	47.0	78	40.5	1	5	248	0.00	30.014 
18:55	47.0	47.0	47.0	79	40.8	1	5	248	0.00	30.014 
19:00	46.8	46.8	46.8	79	40.6	1	5	248	0.00	30.013 
19:05	46.8	46.8	46.8	79	40.6	1	4	248	0.00	30.013 
19:10	46.7	46.7	46.7	79	40.5	1	3	248	0.00	30.013 
19:15	46.5	46.5	46.5	79	40.3	1	5	248	0.00	30.004 
19:20	46.4	46.4	46.4	80	40.6	1	5	248	0.00	30.004 
19:25	46.2	46.2	46.2	80	40.4	1	3	248	0.00	30.004 
19:30	46.2	46.2	46.2	80	40.4	0	2	248	0.00	30.018 
19:35	46.1	46.1	46.1	81	40.6	1	3	248	0.00	30.018 
19:40	46.1	46.1	46.1	81	40.6	1	5	248	0.00	30.018 
19:45	46.0	46.0	46.0	81	40.5	1	4	248	0.00	30.031 
19:50	46.0	46.0	46.0	81	40.5	1	3	248	0.00	30.031 
19:55	45.8	45.8	45.8	81	40.3	1	3	248	0.00	30.031 
20:00	45.8	45.8	45.8	81	40.3	1	4	248	0.00	30.018 
20:05	45.7	45.7	45.7	81	40.2	0	2	248	0.00	30.018 
20:10	45.5	45.5	45.5	82	40.3	0	3	248	0.00	30.018 
20:15	45.4	45.4	45.4	82	40.2	0	2	248	0.00	30.003 
20:20	45.4	45.4	45.4	83	40.5	1	3	248	0.00	30.003 
20:25	45.2	45.2	45.2	83	40.3	0	1	248	0.00	30.003 
20:30	45.2	45.2	45.2	83	40.3	0	2	248	0.00	30.005 
20:35	45.2	45.2	45.2	83	40.3	0	2	248	0.00	30.005 
20:40	45.1	45.1	45.1	83	40.3	0	2	248	0.00	30.005 
20:45	45.1	45.1	45.1	84	40.6	0	1	248	0.00	30.001 
20:50	44.9	44.9	44.9	84	40.4	0	3	248	0.00	30.001 
20:55	44.9	44.9	44.9	84	40.4	0	2	248	0.00	30.001 
21:00	44.9	44.9	44.9	84	40.4	0	4	248	0.00	30.002 
21:05	44.9	44.9	44.9	84	40.4	0	2	248	0.00	30.002 
21:10	44.9	44.9	44.9	84	40.4	0	3	248	0.00	30.002 
21:15	44.9	44.9	44.9	84	40.4	0	1	248	0.00	30.003 
21:20	44.9	44.9	44.9	84	40.4	0	1	248	0.00	30.003 
21:25	44.8	44.8	44.8	84	40.3	0	1	248	0.00	30.003 
21:30	44.8	44.8	44.8	84	40.3	0	1	248	0.00	30.001 
21:35	44.6	44.6	44.6	85	40.4	0	2	248	0.00	30.001 
21:40	44.6	44.6	44.6	85	40.4	0	3	248	0.00	30.001 
21:45	44.5	44.5	44.5	85	40.3	0	3	248	0.00	29.992 
21:50	44.5	44.5	44.5	85	40.3	0	1	248	0.00	29.992 
21:55	44.3	44.3	44.3	85	40.1	0	2	248	0.00	29.992 
22:00	44.2	44.2	44.2	85	40.0	0	2	248	0.00	30.005 
22:05	44.2	44.2	44.2	86	40.3	0	2	248	0.00	30.005 
22:10	44.1	44.1	44.1	86	40.2	0	2	248	0.00	30.005 
22:15	44.1	44.1	44.1	86	40.2	0	2	248	0.00	30.002 
22:20	44.1	44.1	44.1	86	40.2	1	2	248	0.00	30.002 
22:25	44.1	44.1	44.1	86	40.2	0	2	248	0.00	30.002 
22:30	43.9	43.9	43.9	86	40.0	0	1	248	0.00	29.999 
22:35	43.9	43.9	43.9	86	40.0	1	3	248	0.00	29.999 
22:40	43.9	43.9	43.9	86	40.0	0	1	248	0.00	29.999 
22:45	43.9	43.9	43.9	87	40.3	1	3	248	0.00	30.005 
22:50	43.9	43.9	43.9	87	40.3	0	2	248	0.00	30.005 
22:55	43.9	43.9	43.9	87	40.3	0	1	248	0.00	30.005 
23:00	43.9	43.9	43.9	87	40.3	0	2	248	0.00	29.998 
23:05	43.9	43.9	43.9	87	40.3	0	2	248	0.00	29.998 
23:10	44.1	44.1	44.1	87	40.5	0	2	248	0.00	29.998 
23:15	43.9	43.9	43.9	87	40.3	0	2	248	0.00	29.994 
23:20	43.9	43.9	43.9	87	40.3	0	3	248	0.00	29.994 
23:25	43.9	43.9	43.9	87	40.3	0	2	248	0.00	29.994 
23:30	43.9	43.9	43.9	87	40.3	0	2	248	0.00	29.999 
23:35	43.8	43.8	43.8	88	40.5	0	1	248	0.00	29.999 
23:40	43.8	43.8	43.8	88	40.5	0	3	248	0.00	29.999 
23:45	43.8	43.8	43.8	88	40.5	0	2	248	0.00	29.991 
23:50	43.8	43.8	43.8	88	40.5	0	1	248	0.00	29.991 
23:55	43.8	43.8	43.8	88	40.5	0	2	248	0.00	29.991 

CoCoRaHS
IN-AL-39
A2 Web Hosting
Creative Commons License
GoDaddy
search engine by freefind advanced

loaded 2018-11-17 22:38:08 • last modified 2010-11-18 10:43:29
Privacy PolicyDisclaimer
• wx.awcolley.com is powered by PmWiki v.2002016 •
• all content (unless otherwise noted) © 2018 A W Colley